createdAt,value
2019-02-06T00:02:11.839Z,-4.00
2019-02-06T00:07:41.371Z,-4.00
2019-02-06T00:13:10.889Z,-4.10
2019-02-06T00:18:40.319Z,-4.10
2019-02-06T00:24:09.631Z,-4.20
2019-02-06T00:29:38.959Z,-4.30
2019-02-06T00:35:08.546Z,-4.40
2019-02-06T00:40:37.927Z,-4.60
2019-02-06T00:46:07.482Z,-4.70
2019-02-06T00:51:36.832Z,-4.70
2019-02-06T00:57:06.259Z,-4.80
2019-02-06T01:02:35.922Z,-4.80
2019-02-06T01:08:06.163Z,-4.80
2019-02-06T01:13:36.620Z,-4.80
2019-02-06T01:19:06.010Z,-4.90
2019-02-06T01:24:35.543Z,-4.90
2019-02-06T01:30:10.134Z,-4.90
2019-02-06T01:35:49.447Z,-5.00
2019-02-06T01:41:12.846Z,-5.00
2019-02-06T01:46:42.204Z,-5.00
2019-02-06T01:52:11.678Z,-5.00
2019-02-06T01:57:41.269Z,-5.10
2019-02-06T02:03:10.628Z,-5.10
2019-02-06T02:08:42.034Z,-5.10
2019-02-06T02:14:11.584Z,-5.20
2019-02-06T02:19:41.083Z,-5.30
2019-02-06T02:25:11.120Z,-5.30
2019-02-06T02:30:42.241Z,-5.30
2019-02-06T02:36:15.734Z,-5.40
2019-02-06T02:41:43.139Z,-5.40
2019-02-06T02:47:12.662Z,-5.40
2019-02-06T02:52:42.146Z,-5.40
2019-02-06T02:58:11.646Z,-5.40
2019-02-06T03:03:51.787Z,-5.50
2019-02-06T03:09:22.327Z,-5.60
2019-02-06T03:14:53.591Z,-5.60
2019-02-06T03:20:23.522Z,-5.60
2019-02-06T03:25:53.059Z,-5.60
2019-02-06T03:31:22.623Z,-5.60
2019-02-06T03:36:52.192Z,-5.70
2019-02-06T03:42:21.717Z,-5.60
2019-02-06T03:47:51.048Z,-5.60
2019-02-06T03:53:20.425Z,-5.60
2019-02-06T03:58:49.830Z,-5.60
2019-02-06T04:04:19.186Z,-5.50
2019-02-06T04:09:48.515Z,-5.60
2019-02-06T04:15:18.254Z,-5.60
2019-02-06T04:20:47.676Z,-5.50
2019-02-06T04:26:17.352Z,-5.50
2019-02-06T04:31:46.669Z,-5.50
2019-02-06T04:37:16.014Z,-5.50
2019-02-06T04:42:45.724Z,-5.60
2019-02-06T04:48:15.462Z,-5.60
2019-02-06T04:53:44.880Z,-5.60
2019-02-06T04:59:14.222Z,-5.60
2019-02-06T05:04:43.718Z,-5.70
2019-02-06T05:10:14.765Z,-5.70
2019-02-06T05:15:44.550Z,-5.80
2019-02-06T05:21:13.956Z,-5.90
2019-02-06T05:26:43.415Z,-5.90
2019-02-06T05:32:12.790Z,-6.00
2019-02-06T05:37:42.585Z,-6.10
2019-02-06T05:43:12.054Z,-6.10
2019-02-06T05:48:41.484Z,-6.10
2019-02-06T05:54:10.993Z,-6.20
2019-02-06T05:59:40.528Z,-6.20
2019-02-06T06:05:11.461Z,-6.30
2019-02-06T06:10:40.918Z,-6.40
2019-02-06T06:16:10.419Z,-6.40
2019-02-06T06:21:39.776Z,-6.40
2019-02-06T06:27:09.161Z,-6.40
2019-02-06T06:32:38.627Z,-6.40
2019-02-06T06:38:08.212Z,-6.40
2019-02-06T06:43:37.561Z,-6.40
2019-02-06T06:49:06.959Z,-6.30
2019-02-06T06:54:36.359Z,-5.40
2019-02-06T07:00:19.536Z,-5.80
2019-02-06T07:05:49.039Z,-6.00
2019-02-06T07:11:18.367Z,-6.00
2019-02-06T07:16:47.964Z,-6.00
2019-02-06T07:22:17.305Z,-6.00
2019-02-06T07:27:46.781Z,-5.60
2019-02-06T07:33:16.191Z,-5.30
2019-02-06T07:38:45.522Z,-5.50
2019-02-06T07:44:14.914Z,-5.50
2019-02-06T07:49:44.267Z,-5.40
2019-02-06T07:55:14.135Z,-5.40
2019-02-06T08:00:43.469Z,-5.30
2019-02-06T08:06:12.993Z,-5.20
2019-02-06T08:11:42.413Z,-5.00
2019-02-06T08:17:11.898Z,-4.90
2019-02-06T08:22:41.344Z,-4.80
2019-02-06T08:28:11.094Z,-4.80
2019-02-06T08:33:40.497Z,-4.70
2019-02-06T08:39:09.968Z,-4.70
2019-02-06T08:44:39.314Z,-4.60
2019-02-06T08:50:13.397Z,-4.60
2019-02-06T08:55:42.935Z,-4.20
2019-02-06T09:01:12.425Z,-3.90
2019-02-06T09:06:41.831Z,-3.60
2019-02-06T09:12:11.162Z,-3.50
2019-02-06T09:17:40.944Z,-3.20
2019-02-06T09:23:10.367Z,-2.90
2019-02-06T09:28:39.843Z,-2.70
2019-02-06T09:34:09.885Z,-2.60
2019-02-06T09:39:39.465Z,-2.60
2019-02-06T09:45:11.491Z,-2.40
2019-02-06T09:50:40.923Z,-2.30
2019-02-06T09:56:10.361Z,-2.40
2019-02-06T10:01:39.825Z,-2.30
2019-02-06T10:07:09.235Z,-2.20
2019-02-06T10:12:38.593Z,-2.00
2019-02-06T10:18:08.351Z,-1.90
2019-02-06T10:23:37.845Z,-1.70
2019-02-06T10:29:07.597Z,-1.60
2019-02-06T10:34:37.095Z,-1.40
2019-02-06T10:40:10.481Z,-1.20
2019-02-06T10:45:39.889Z,-1.20
2019-02-06T10:51:09.747Z,-1.20
2019-02-06T10:56:39.354Z,-1.20
2019-02-06T11:02:08.820Z,-1.00
2019-02-06T11:07:38.472Z,-1.10
2019-02-06T11:13:08.013Z,-1.10
2019-02-06T11:18:37.712Z,-1.20
2019-02-06T11:24:07.118Z,-0.90
2019-02-06T11:29:36.509Z,-0.80
2019-02-06T11:35:07.918Z,-0.90
2019-02-06T11:40:37.435Z,-0.90
2019-02-06T11:46:09.049Z,-0.70
2019-02-06T11:51:38.169Z,-0.50
2019-02-06T11:57:07.772Z,-0.50
2019-02-06T12:02:37.693Z,-0.10
2019-02-06T12:08:07.279Z,0.20
2019-02-06T12:13:36.719Z,0.40
2019-02-06T12:19:06.167Z,0.30
2019-02-06T12:24:35.503Z,0.30
2019-02-06T12:30:09.804Z,0.40
2019-02-06T12:35:39.252Z,0.90
2019-02-06T12:41:08.750Z,1.20
2019-02-06T12:46:38.095Z,1.20
2019-02-06T12:52:07.538Z,1.20
2019-02-06T12:57:37.621Z,1.40
2019-02-06T13:03:07.267Z,1.70
2019-02-06T13:08:36.805Z,2.00
2019-02-06T13:14:06.552Z,1.70
2019-02-06T13:19:35.963Z,1.50
2019-02-06T13:25:09.393Z,1.50
2019-02-06T13:30:39.391Z,1.50
2019-02-06T13:36:09.742Z,1.50
2019-02-06T13:41:39.466Z,1.30
2019-02-06T13:47:09.009Z,1.10
2019-02-06T13:52:38.539Z,0.80
2019-02-06T13:58:18.336Z,0.50
2019-02-06T14:03:39.251Z,0.30
2019-02-06T14:09:21.653Z,0.00
2019-02-06T14:14:41.952Z,-0.60
2019-02-06T14:20:20.822Z,-1.10
2019-02-06T14:26:28.191Z,-1.40
2019-02-06T14:32:35.187Z,-2.00
2019-02-06T14:38:53.500Z,-2.10
2019-02-06T14:44:46.895Z,-2.30
2019-02-06T14:50:58.699Z,-2.40
2019-02-06T14:56:35.364Z,-2.50
2019-02-06T15:02:24.273Z,-2.60
2019-02-06T15:08:24.126Z,-2.60
2019-02-06T15:14:04.153Z,-2.50
2019-02-06T15:19:46.982Z,-2.60
2019-02-06T15:25:31.132Z,-2.60
2019-02-06T15:31:39.961Z,-2.70
2019-02-06T15:37:39.751Z,-2.70
2019-02-06T15:43:14.045Z,-2.70
2019-02-06T15:49:05.846Z,-2.60
2019-02-06T15:55:06.444Z,-2.70
2019-02-06T16:01:03.278Z,-2.80
2019-02-06T16:07:09.099Z,-3.00
2019-02-06T16:12:52.525Z,-3.10
2019-02-06T16:18:35.833Z,-3.40
2019-02-06T16:24:32.651Z,-3.60
2019-02-06T16:30:41.502Z,-3.70
2019-02-06T16:36:41.125Z,-4.00
2019-02-06T16:42:37.681Z,-4.20
2019-02-06T16:48:28.141Z,-4.50
2019-02-06T16:54:17.022Z,-4.60
2019-02-06T17:00:03.001Z,-4.70
2019-02-06T17:05:56.373Z,-4.90
2019-02-06T17:11:39.307Z,-5.10
2019-02-06T17:17:28.090Z,-5.20
2019-02-06T17:23:31.206Z,-5.20
2019-02-06T17:29:29.076Z,-5.30
2019-02-06T17:35:05.550Z,-5.30
2019-02-06T17:41:17.321Z,-5.30
2019-02-06T17:46:57.106Z,-5.30
2019-02-06T17:52:31.113Z,-5.30
2019-02-06T17:58:00.628Z,-5.30
2019-02-06T18:03:33.633Z,-5.30
2019-02-06T18:09:07.415Z,-5.30
2019-02-06T18:14:36.926Z,-5.40
2019-02-06T18:20:16.703Z,-5.40
2019-02-06T18:25:46.069Z,-5.40
2019-02-06T18:31:15.346Z,-5.40
2019-02-06T18:36:44.738Z,-5.40
2019-02-06T18:42:14.148Z,-5.40
2019-02-06T18:47:43.827Z,-5.40
2019-02-06T18:53:13.150Z,-5.30
2019-02-06T18:58:42.737Z,-5.40
2019-02-06T19:04:13.189Z,-5.50
2019-02-06T19:09:42.689Z,-5.50
2019-02-06T19:15:16.275Z,-5.60
2019-02-06T19:20:46.248Z,-5.40
2019-02-06T19:26:15.528Z,-5.40
2019-02-06T19:31:44.888Z,-5.50
2019-02-06T19:37:14.185Z,-5.50
2019-02-06T19:42:43.490Z,-5.60
2019-02-06T19:48:16.213Z,-5.60
2019-02-06T19:53:44.781Z,-5.70
2019-02-06T19:59:14.066Z,-5.70
2019-02-06T20:04:43.342Z,-5.80
2019-02-06T20:10:22.922Z,-5.90
2019-02-06T20:15:52.257Z,-5.90
2019-02-06T20:21:21.614Z,-5.90
2019-02-06T20:26:50.893Z,-6.00
2019-02-06T20:32:21.192Z,-6.00
2019-02-06T20:37:50.552Z,-6.00
2019-02-06T20:43:22.250Z,-6.00
2019-02-06T20:48:51.142Z,-6.00
2019-02-06T20:54:21.436Z,-6.00
2019-02-06T20:59:50.785Z,-6.00
2019-02-06T21:05:20.433Z,-6.00
2019-02-06T21:10:49.791Z,-5.90
2019-02-06T21:16:19.089Z,-6.00
2019-02-06T21:21:48.355Z,-6.00
2019-02-06T21:27:17.722Z,-6.00
2019-02-06T21:32:48.134Z,-5.90
2019-02-06T21:38:17.421Z,-5.90
2019-02-06T21:43:46.774Z,-5.80
2019-02-06T21:49:17.703Z,-5.80
2019-02-06T21:54:47.359Z,-5.80
2019-02-06T22:00:37.190Z,-5.80
2019-02-06T22:06:06.729Z,-5.90
2019-02-06T22:11:36.021Z,-5.90
2019-02-06T22:17:05.467Z,-5.90
2019-02-06T22:22:34.734Z,-5.90
2019-02-06T22:28:04.705Z,-5.80
2019-02-06T22:33:34.059Z,-5.80
2019-02-06T22:39:05.053Z,-5.80
2019-02-06T22:44:34.335Z,-5.80
2019-02-06T22:50:05.881Z,-5.80
2019-02-06T22:55:35.622Z,-5.80
2019-02-06T23:01:09.822Z,-5.70
2019-02-06T23:06:39.332Z,-5.80
2019-02-06T23:12:11.596Z,-5.80
2019-02-06T23:17:41.827Z,-5.80
2019-02-06T23:23:11.322Z,-5.90
2019-02-06T23:28:40.603Z,-5.90
2019-02-06T23:34:09.950Z,-5.90
2019-02-06T23:39:39.234Z,-5.90
2019-02-06T23:45:10.511Z,-5.90
2019-02-06T23:50:40.171Z,-5.90
2019-02-06T23:56:09.692Z,-5.90
